Time;durP1;ratioP1;P1;durP2;ratioP2;P2;SDS_P1;SDS_P2;PMS_P1;PMS_P2;Temp;Humidity;BMP_temperature;BMP_pressure;BME280_temperature;BME280_humidity;BME280_pressure;Samples;Min_cycle;Max_cycle;Signal;HPM_P1;HPM_P2
2022/08/16 00:01:39;;;;;;;7.57;3.78;;;;;;;;;;4963844;28;20054;-64
2022/08/16 00:04:06;;;;;;;10.38;4.35;;;;;;;;;;4968837;28;20055;-60
2022/08/16 00:06:34;;;;;;;5.95;2.97;;;;;;;;;;4968970;28;20057;-65
2022/08/16 00:09:01;;;;;;;6.13;2.92;;;;;;;;;;4965138;28;20067;-57
2022/08/16 00:11:28;;;;;;;5.65;2.85;;;;;;;;;;4970094;28;20066;-65
2022/08/16 00:13:55;;;;;;;4.80;2.55;;;;;;;;;;4965750;28;20062;-60
2022/08/16 00:16:21;;;;;;;7.18;3.30;;;;;;;;;;4970141;28;20059;-63
2022/08/16 00:18:49;;;;;;;5.60;3.13;;;;;;;;;;4964452;28;20105;-66
2022/08/16 00:21:18;;;;;;;5.27;2.83;;;;;;;;;;4966236;28;20055;-63
2022/08/16 00:23:46;;;;;;;6.50;2.95;;;;;;;;;;4963956;28;20074;-59
2022/08/16 00:26:13;;;;;;;6.05;3.10;;;;;;;;;;4969514;28;20061;-65
2022/08/16 00:28:39;;;;;;;6.03;3.00;;;;;;;;;;4963658;28;20145;-68
2022/08/16 00:31:06;;;;;;;6.45;3.47;;;;;;;;;;4969710;28;20068;-68
2022/08/16 00:33:33;;;;;;;7.32;3.00;;;;;;;;;;4969169;28;20059;-72
2022/08/16 00:35:59;;;;;;;6.00;2.90;;;;;;;;;;4987868;28;20062;-68
2022/08/16 00:38:26;;;;;;;6.18;2.60;;;;;;;;;;4978805;28;20051;-71
2022/08/16 00:40:54;;;;;;;5.20;2.95;;;;;;;;;;4985316;28;20054;-71
2022/08/16 00:43:22;;;;;;;4.78;2.53;;;;;;;;;;4978947;28;20051;-69
2022/08/16 00:45:52;;;;;;;4.97;2.80;;;;;;;;;;4986039;28;20150;-67
2022/08/16 00:48:19;;;;;;;6.32;2.75;;;;;;;;;;4983909;28;20073;-60
2022/08/16 00:50:46;;;;;;;9.18;4.15;;;;;;;;;;4967034;28;20054;-67
2022/08/16 00:53:18;;;;;;;8.18;3.20;;;;;;;;;;4970014;28;20054;-72
2022/08/16 00:55:47;;;;;;;4.53;2.83;;;;;;;;;;4962975;28;20057;-72
2022/08/16 00:58:16;;;;;;;6.50;2.80;;;;;;;;;;4983573;28;20074;-73
2022/08/16 01:00:44;;;;;;;4.78;2.60;;;;;;;;;;4980238;28;20055;-73
2022/08/16 01:03:13;;;;;;;6.60;3.28;;;;;;;;;;4983886;28;20046;-73
2022/08/16 01:05:41;;;;;;;7.18;3.20;;;;;;;;;;4958603;28;20051;-60
2022/08/16 01:08:09;;;;;;;7.97;3.00;;;;;;;;;;4968227;28;20116;-73
2022/08/16 01:10:36;;;;;;;9.40;4.53;;;;;;;;;;4963087;28;20059;-74
2022/08/16 01:13:10;;;;;;;5.35;3.00;;;;;;;;;;4970014;28;20047;-73
2022/08/16 01:15:40;;;;;;;6.47;2.95;;;;;;;;;;4962152;28;20073;-72
2022/08/16 01:18:07;;;;;;;9.63;2.97;;;;;;;;;;4969999;28;20081;-74
2022/08/16 01:20:35;;;;;;;7.75;4.55;;;;;;;;;;4966760;28;20134;-71
2022/08/16 01:23:05;;;;;;;7.63;3.03;;;;;;;;;;4966303;28;20113;-73
2022/08/16 01:25:35;;;;;;;5.68;2.90;;;;;;;;;;4970137;28;20051;-73
2022/08/16 01:28:03;;;;;;;6.38;3.00;;;;;;;;;;4961956;28;20062;-67
2022/08/16 01:30:29;;;;;;;;;;;;;;;;;;5002613;28;20043;-69
2022/08/16 01:33:00;;;;;;;7.28;3.10;;;;;;;;;;4963014;28;19933;-72
2022/08/16 01:35:28;;;;;;;5.00;2.42;;;;;;;;;;4969078;28;20070;-70
2022/08/16 01:37:55;;;;;;;4.35;2.65;;;;;;;;;;4995358;28;20073;-71
2022/08/16 01:40:24;;;;;;;9.07;4.60;;;;;;;;;;4968788;28;20043;-67
2022/08/16 01:42:51;;;;;;;;;;;;;;;;;;5000689;28;20106;-62
2022/08/16 01:45:20;;;;;;;5.43;3.03;;;;;;;;;;4964510;28;19932;-71
2022/08/16 01:47:49;;;;;;;6.07;3.00;;;;;;;;;;4966248;28;20133;-68
2022/08/16 01:50:16;;;;;;;4.70;2.55;;;;;;;;;;4966534;28;20053;-73
2022/08/16 01:52:44;;;;;;;5.78;3.08;;;;;;;;;;4988760;28;20050;-73
2022/08/16 01:55:10;;;;;;;6.53;3.17;;;;;;;;;;4975856;28;20047;-70
2022/08/16 01:57:37;;;;;;;5.47;2.80;;;;;;;;;;4971790;28;20105;-70
2022/08/16 02:00:06;;;;;;;5.40;2.88;;;;;;;;;;4951339;28;20054;-72
2022/08/16 02:02:39;;;;;;;;;;;;;;;;;;4971698;28;20051;-68
2022/08/16 02:05:07;;;;;;;4.55;2.65;;;;;;;;;;5003544;28;19964;-67
2022/08/16 02:07:34;;;;;;;12.38;6.90;;;;;;;;;;4998677;28;20184;-66
2022/08/16 02:10:00;;;;;;;6.53;3.30;;;;;;;;;;4970997;28;20062;-71
2022/08/16 02:12:28;;;;;;;10.85;5.30;;;;;;;;;;4966003;28;20065;-71
2022/08/16 02:14:55;;;;;;;11.38;5.88;;;;;;;;;;4972179;28;20094;-69
2022/08/16 02:17:21;;;;;;;6.18;3.35;;;;;;;;;;4966207;28;20089;-71
2022/08/16 02:19:50;;;;;;;5.85;3.08;;;;;;;;;;4970324;28;20066;-68
2022/08/16 02:22:16;;;;;;;;;;;;;;;;;;4967026;28;20051;-72
2022/08/16 02:24:44;;;;;;;4.55;2.70;;;;;;;;;;4972421;28;19972;-72
2022/08/16 02:27:11;;;;;;;6.82;3.83;;;;;;;;;;4988604;28;20146;-69
2022/08/16 02:29:38;;;;;;;7.80;3.72;;;;;;;;;;4983105;28;20114;-66
2022/08/16 02:32:05;;;;;;;6.83;3.20;;;;;;;;;;4959153;28;20055;-72
2022/08/16 02:34:33;;;;;;;6.43;3.03;;;;;;;;;;4994475;28;20055;-71
2022/08/16 02:36:59;;;;;;;6.47;3.00;;;;;;;;;;4970796;28;20064;-57
2022/08/16 02:39:26;;;;;;;7.63;3.10;;;;;;;;;;4966401;28;20120;-65
2022/08/16 02:41:54;;;;;;;5.25;2.88;;;;;;;;;;4972926;28;20049;-59
2022/08/16 02:44:22;;;;;;;7.07;3.25;;;;;;;;;;4984715;28;20150;-67
2022/08/16 02:46:48;;;;;;;8.20;3.67;;;;;;;;;;4990540;28;20061;-60
2022/08/16 02:49:15;;;;;;;6.65;3.28;;;;;;;;;;4976183;28;20047;-60
2022/08/16 02:51:43;;;;;;;6.43;2.88;;;;;;;;;;4971530;28;20051;-64
2022/08/16 02:54:12;;;;;;;6.53;3.00;;;;;;;;;;4966724;28;20055;-69
2022/08/16 02:56:39;;;;;;;7.10;3.22;;;;;;;;;;4969946;28;20145;-72
2022/08/16 02:59:07;;;;;;;6.32;3.40;;;;;;;;;;4981031;28;20050;-58
2022/08/16 03:01:34;;;;;;;5.72;2.95;;;;;;;;;;4970034;28;20065;-64
2022/08/16 03:04:02;;;;;;;8.70;4.68;;;;;;;;;;4964084;28;20065;-61
2022/08/16 03:06:29;;;;;;;6.13;2.92;;;;;;;;;;4968357;28;20046;-63
2022/08/16 03:08:56;;;;;;;7.32;3.10;;;;;;;;;;4969186;28;20070;-60
2022/08/16 03:11:23;;;;;;;5.35;3.10;;;;;;;;;;4968013;28;20137;-66
2022/08/16 03:13:51;;;;;;;6.32;3.40;;;;;;;;;;4968741;28;20054;-61
2022/08/16 03:16:20;;;;;;;6.55;3.33;;;;;;;;;;4964672;28;20051;-62
2022/08/16 03:18:47;;;;;;;5.38;2.75;;;;;;;;;;4969706;28;20061;-63
2022/08/16 03:21:14;;;;;;;6.75;3.17;;;;;;;;;;4963881;28;20112;-67
2022/08/16 03:23:40;;;;;;;6.32;3.17;;;;;;;;;;4985943;28;20061;-58
2022/08/16 03:26:07;;;;;;;6.53;3.47;;;;;;;;;;4964039;28;20062;-57
2022/08/16 03:28:34;;;;;;;6.60;3.00;;;;;;;;;;4971574;28;20138;-62
2022/08/16 03:31:01;;;;;;;7.40;3.55;;;;;;;;;;4965258;28;20054;-61
2022/08/16 03:33:29;;;;;;;6.97;3.05;;;;;;;;;;4970404;28;20059;-61
2022/08/16 03:35:58;;;;;;;7.75;4.18;;;;;;;;;;4964402;28;20051;-64
2022/08/16 03:38:27;;;;;;;5.68;3.15;;;;;;;;;;4970172;28;20051;-71
2022/08/16 03:40:54;;;;;;;6.07;3.20;;;;;;;;;;4980885;28;20139;-71
2022/08/16 03:43:24;;;;;;;6.53;3.33;;;;;;;;;;4970505;28;20067;-73
2022/08/16 03:45:51;;;;;;;13.23;7.15;;;;;;;;;;4965049;28;20042;-73
2022/08/16 03:48:19;;;;;;;12.43;5.95;;;;;;;;;;4969787;28;20055;-61
2022/08/16 03:50:47;;;;;;;7.85;3.45;;;;;;;;;;4971972;28;20046;-64
2022/08/16 03:53:14;;;;;;;12.43;6.88;;;;;;;;;;4989055;28;20065;-60
2022/08/16 03:55:41;;;;;;;7.30;3.63;;;;;;;;;;4970679;28;20063;-71
2022/08/16 03:58:07;;;;;;;6.07;3.60;;;;;;;;;;4983534;28;20069;-70
2022/08/16 04:00:34;;;;;;;6.03;3.08;;;;;;;;;;4990522;28;20060;-71
2022/08/16 04:03:05;;;;;;;8.38;3.13;;;;;;;;;;4968141;28;20066;-72
2022/08/16 04:05:32;;;;;;;7.80;3.10;;;;;;;;;;4969405;28;20134;-69
2022/08/16 04:08:00;;;;;;;5.63;3.22;;;;;;;;;;4964611;28;20070;-64
2022/08/16 04:10:27;;;;;;;13.30;6.68;;;;;;;;;;4970758;28;20046;-62
2022/08/16 04:13:01;;;;;;;15.45;6.65;;;;;;;;;;4965078;28;20097;-68
2022/08/16 04:15:28;;;;;;;8.80;4.68;;;;;;;;;;4986336;28;20055;-63
2022/08/16 04:17:54;;;;;;;13.32;7.82;;;;;;;;;;4973388;28;20046;-64
2022/08/16 04:20:22;;;;;;;11.10;5.05;;;;;;;;;;4989010;28;22102;-62
2022/08/16 04:22:49;;;;;;;8.25;4.25;;;;;;;;;;4968484;28;20059;-68
2022/08/16 04:25:17;;;;;;;8.73;4.05;;;;;;;;;;4951348;28;20050;-67
2022/08/16 04:27:44;;;;;;;14.52;5.28;;;;;;;;;;4983992;28;20053;-65
2022/08/16 04:30:12;;;;;;;8.48;3.85;;;;;;;;;;4970197;28;20069;-67
2022/08/16 04:32:38;;;;;;;;;;;;;;;;;;4964181;28;20065;-57
2022/08/16 04:35:06;;;;;;;6.45;3.35;;;;;;;;;;4969964;28;19965;-63
2022/08/16 04:37:32;;;;;;;8.90;4.45;;;;;;;;;;4964336;28;20071;-60
2022/08/16 04:39:59;;;;;;;10.55;4.80;;;;;;;;;;4969098;28;20058;-68
2022/08/16 04:42:27;;;;;;;7.97;3.90;;;;;;;;;;4970333;28;20050;-65
2022/08/16 04:44:57;;;;;;;8.77;3.83;;;;;;;;;;4964693;28;20082;-66
2022/08/16 04:47:25;;;;;;;6.80;4.03;;;;;;;;;;4968849;28;20062;-73
2022/08/16 04:49:51;;;;;;;10.75;5.78;;;;;;;;;;4963659;28;20099;-73
2022/08/16 04:52:18;;;;;;;7.10;3.78;;;;;;;;;;4968720;28;20093;-70
2022/08/16 04:54:45;;;;;;;8.77;4.72;;;;;;;;;;4964430;28;20054;-72
2022/08/16 04:57:11;;;;;;;14.85;7.20;;;;;;;;;;4968576;28;20059;-64
2022/08/16 04:59:39;;;;;;;8.43;3.83;;;;;;;;;;4962854;28;20064;-67
2022/08/16 05:02:06;;;;;;;16.73;8.30;;;;;;;;;;4968590;28;20094;-67
2022/08/16 05:04:32;;;;;;;10.70;4.22;;;;;;;;;;4960760;28;20065;-67
2022/08/16 05:06:59;;;;;;;8.45;4.53;;;;;;;;;;4965854;28;20059;-73
2022/08/16 05:09:25;;;;;;;9.45;5.15;;;;;;;;;;4978867;28;20117;-72
2022/08/16 05:11:52;;;;;;;6.75;3.88;;;;;;;;;;4966682;28;20058;-73
2022/08/16 05:14:19;;;;;;;8.93;3.80;;;;;;;;;;4961077;28;20050;-66
2022/08/16 05:16:47;;;;;;;5.75;3.47;;;;;;;;;;4967194;28;20141;-69
2022/08/16 05:19:14;;;;;;;7.05;3.67;;;;;;;;;;4977264;28;20055;-67
2022/08/16 05:21:42;;;;;;;6.55;3.35;;;;;;;;;;4968006;28;20062;-70
2022/08/16 05:24:08;;;;;;;10.32;5.22;;;;;;;;;;4967456;28;20058;-71
2022/08/16 05:26:36;;;;;;;6.85;3.65;;;;;;;;;;4961392;28;20065;-65
2022/08/16 05:29:06;;;;;;;7.57;4.20;;;;;;;;;;4968433;28;20050;-72
2022/08/16 05:31:33;;;;;;;10.27;4.63;;;;;;;;;;4963819;28;20061;-59
2022/08/16 05:34:02;;;;;;;7.10;4.13;;;;;;;;;;4971063;28;20050;-63
2022/08/16 05:36:29;;;;;;;11.60;4.80;;;;;;;;;;4998170;28;20094;-60
2022/08/16 05:38:55;;;;;;;7.25;3.80;;;;;;;;;;4971105;28;20133;-60
2022/08/16 05:41:23;;;;;;;13.40;7.72;;;;;;;;;;4964768;28;20137;-65
2022/08/16 05:43:50;;;;;;;8.35;4.60;;;;;;;;;;4986712;28;20062;-66
2022/08/16 05:46:18;;;;;;;9.18;4.82;;;;;;;;;;4955420;28;20055;-59
2022/08/16 05:48:45;;;;;;;8.07;4.07;;;;;;;;;;4971015;28;20125;-70
2022/08/16 05:51:17;;;;;;;12.07;7.20;;;;;;;;;;4977151;28;20117;-63
2022/08/16 05:53:44;;;;;;;17.90;10.55;;;;;;;;;;4994325;28;20050;-66
2022/08/16 05:56:12;;;;;;;9.63;4.97;;;;;;;;;;4976620;28;20080;-62
2022/08/16 05:58:39;;;;;;;22.65;11.05;;;;;;;;;;4971112;28;20043;-66
2022/08/16 06:01:06;;;;;;;18.27;10.10;;;;;;;;;;4966300;28;20077;-60
2022/08/16 06:03:37;;;;;;;18.23;10.25;;;;;;;;;;4968654;28;20066;-68
2022/08/16 06:06:03;;;;;;;9.35;5.47;;;;;;;;;;4954620;28;20057;-68
2022/08/16 06:08:31;;;;;;;33.05;12.15;;;;;;;;;;4970340;28;20059;-69
2022/08/16 06:11:00;;;;;;;21.38;8.90;;;;;;;;;;4969291;28;20152;-66
2022/08/16 06:13:36;;;;;;;20.08;10.45;;;;;;;;;;4965324;28;20070;-71
2022/08/16 06:16:04;;;;;;;18.55;8.55;;;;;;;;;;4965189;28;20054;-70
2022/08/16 06:18:31;;;;;;;28.60;12.40;;;;;;;;;;4962269;28;20138;-64
2022/08/16 06:20:58;;;;;;;16.25;7.70;;;;;;;;;;4962504;28;20134;-63
2022/08/16 06:23:25;;;;;;;27.30;12.93;;;;;;;;;;4979046;28;20061;-70
2022/08/16 06:25:53;;;;;;;8.85;5.05;;;;;;;;;;5003249;28;20082;-74
2022/08/16 06:28:20;;;;;;;20.33;9.88;;;;;;;;;;4996367;28;20054;-74
2022/08/16 06:30:47;;;;;;;15.77;8.40;;;;;;;;;;4970111;28;20043;-65
2022/08/16 06:33:18;;;;;;;16.40;7.95;;;;;;;;;;4986511;28;20130;-71
2022/08/16 06:35:45;;;;;;;18.60;10.70;;;;;;;;;;4979468;28;20054;-69
2022/08/16 06:38:11;;;;;;;8.98;4.38;;;;;;;;;;4969725;28;20062;-71
2022/08/16 06:40:39;;;;;;;22.08;12.60;;;;;;;;;;4964070;28;20161;-71
2022/08/16 06:43:08;;;;;;;10.32;6.00;;;;;;;;;;4970066;28;20058;-68
2022/08/16 06:45:36;;;;;;;21.25;10.10;;;;;;;;;;4964009;28;20161;-69
2022/08/16 06:48:03;;;;;;;24.00;13.55;;;;;;;;;;4969877;28;20119;-73
2022/08/16 06:50:31;;;;;;;20.10;11.07;;;;;;;;;;4970807;28;20062;-60
2022/08/16 06:53:00;;;;;;;23.85;13.43;;;;;;;;;;4966697;28;20074;-71
2022/08/16 06:55:27;;;;;;;22.55;12.27;;;;;;;;;;4970484;28;20081;-69
2022/08/16 06:57:54;;;;;;;16.27;7.95;;;;;;;;;;4963749;28;20051;-72
2022/08/16 07:00:23;;;;;;;19.88;10.15;;;;;;;;;;4969452;28;20062;-63
2022/08/16 07:02:51;;;;;;;15.60;8.48;;;;;;;;;;4979248;28;20065;-63
2022/08/16 07:05:18;;;;;;;21.50;10.48;;;;;;;;;;5003036;28;20054;-70
2022/08/16 07:07:47;;;;;;;10.65;6.47;;;;;;;;;;4963305;28;20069;-73
2022/08/16 07:10:18;;;;;;;12.60;6.30;;;;;;;;;;4969915;28;20059;-69
2022/08/16 07:12:49;;;;;;;20.92;11.23;;;;;;;;;;4967622;28;20105;-72
2022/08/16 07:15:16;;;;;;;18.45;10.38;;;;;;;;;;4998266;28;20082;-68
2022/08/16 07:17:45;;;;;;;23.48;13.90;;;;;;;;;;4968978;28;20058;-63
2022/08/16 07:20:12;;;;;;;14.80;8.63;;;;;;;;;;4963480;28;20046;-67
2022/08/16 07:22:40;;;;;;;10.35;5.80;;;;;;;;;;4968311;28;20066;-63
2022/08/16 07:25:08;;;;;;;15.82;8.63;;;;;;;;;;4964052;28;20046;-72
2022/08/16 07:27:35;;;;;;;21.70;12.80;;;;;;;;;;4999232;28;20061;-69
2022/08/16 07:30:01;;;;;;;13.63;7.70;;;;;;;;;;4964355;28;20050;-66
2022/08/16 07:32:28;;;;;;;15.45;8.32;;;;;;;;;;4968960;28;20058;-65
2022/08/16 07:34:57;;;;;;;18.17;9.88;;;;;;;;;;4963682;28;20046;-70
2022/08/16 07:37:24;;;;;;;21.65;12.18;;;;;;;;;;4967652;28;20050;-60
2022/08/16 07:39:51;;;;;;;14.10;8.50;;;;;;;;;;4961146;28;20059;-66
2022/08/16 07:42:18;;;;;;;24.88;13.32;;;;;;;;;;4985491;28;20047;-67
2022/08/16 07:44:44;;;;;;;28.38;13.05;;;;;;;;;;4968066;28;20055;-60
2022/08/16 07:47:11;;;;;;;18.92;10.38;;;;;;;;;;4964877;28;20054;-65
2022/08/16 07:49:38;;;;;;;23.38;12.73;;;;;;;;;;4968726;28;20073;-64
2022/08/16 07:52:06;;;;;;;16.92;9.40;;;;;;;;;;4962405;28;20070;-75
2022/08/16 07:54:33;;;;;;;;;;;;;;;;;;4969008;28;20054;-65
2022/08/16 07:57:00;;;;;;;21.48;10.05;;;;;;;;;;4976554;28;20017;-68
2022/08/16 07:59:26;;;;;;;17.90;9.15;;;;;;;;;;4988038;28;20049;-71
2022/08/16 08:01:55;;;;;;;22.08;11.27;;;;;;;;;;4969843;28;20051;-68
2022/08/16 08:04:22;;;;;;;19.17;8.88;;;;;;;;;;4967981;28;20071;-59
2022/08/16 08:06:48;;;;;;;20.20;10.35;;;;;;;;;;4962484;28;20054;-71
2022/08/16 08:09:16;;;;;;;19.67;12.57;;;;;;;;;;4968473;28;20050;-63
2022/08/16 08:11:44;;;;;;;11.88;6.18;;;;;;;;;;4962444;28;20061;-58
2022/08/16 08:14:11;;;;;;;36.42;18.45;;;;;;;;;;4968417;28;20082;-62
2022/08/16 08:16:38;;;;;;;13.95;7.57;;;;;;;;;;4962388;28;20046;-59
2022/08/16 08:19:09;;;;;;;21.55;11.90;;;;;;;;;;4978048;28;20061;-66
2022/08/16 08:21:36;;;;;;;20.35;12.18;;;;;;;;;;4962545;28;20144;-68
2022/08/16 08:24:04;;;;;;;21.25;12.77;;;;;;;;;;4968182;28;20059;-65
2022/08/16 08:26:32;;;;;;;24.15;11.23;;;;;;;;;;4962831;28;20051;-63
2022/08/16 08:28:59;;;;;;;15.93;9.15;;;;;;;;;;4964179;28;20074;-75
2022/08/16 08:31:28;;;;;;;17.00;9.20;;;;;;;;;;5001057;28;20057;-73
2022/08/16 08:33:57;;;;;;;12.10;6.93;;;;;;;;;;4962455;28;20058;-67
2022/08/16 08:36:25;;;;;;;25.20;12.05;;;;;;;;;;4969160;28;20054;-66
2022/08/16 08:38:52;;;;;;;23.13;11.70;;;;;;;;;;4958983;28;20047;-75
2022/08/16 08:41:19;;;;;;;23.30;12.48;;;;;;;;;;4948783;28;20047;-73
2022/08/16 08:43:47;;;;;;;24.05;10.48;;;;;;;;;;4957874;28;20078;-71
2022/08/16 08:46:14;;;;;;;;;;;;;;;;;;4968830;28;20062;-66
2022/08/16 08:48:40;;;;;;;22.17;11.57;;;;;;;;;;4995250;28;19957;-70
2022/08/16 08:51:09;;;;;;;13.77;8.88;;;;;;;;;;4968197;28;20111;-75
2022/08/16 08:53:38;;;;;;;17.05;8.25;;;;;;;;;;4963341;28;20054;-73
2022/08/16 08:56:06;;;;;;;17.70;9.73;;;;;;;;;;4968205;28;20133;-63
2022/08/16 08:58:33;;;;;;;17.65;9.13;;;;;;;;;;4962736;28;20077;-71
2022/08/16 09:01:01;;;;;;;18.42;11.07;;;;;;;;;;4967780;28;20142;-66
2022/08/16 09:03:30;;;;;;;19.33;11.95;;;;;;;;;;4965031;28;20057;-66
2022/08/16 09:05:57;;;;;;;23.58;12.77;;;;;;;;;;4987436;28;20074;-72
2022/08/16 09:08:25;;;;;;;25.02;12.05;;;;;;;;;;4978827;28;20055;-65
2022/08/16 09:10:52;;;;;;;20.83;11.60;;;;;;;;;;4966190;28;20058;-74
2022/08/16 09:13:19;;;;;;;13.38;6.82;;;;;;;;;;4963095;28;20046;-70
2022/08/16 09:15:47;;;;;;;17.25;9.32;;;;;;;;;;4948138;29;20066;-70
2022/08/16 09:18:16;;;;;;;21.88;11.02;;;;;;;;;;4947962;28;20059;-74
2022/08/16 09:20:43;;;;;;;20.88;11.68;;;;;;;;;;4957724;28;20055;-72
2022/08/16 09:23:10;;;;;;;18.90;9.60;;;;;;;;;;4947401;28;20059;-73
2022/08/16 09:25:37;;;;;;;18.95;10.57;;;;;;;;;;4991002;28;20058;-72
2022/08/16 09:28:04;;;;;;;21.00;9.90;;;;;;;;;;4967403;28;20101;-74
2022/08/16 09:30:33;;;;;;;16.63;8.23;;;;;;;;;;4962008;28;20043;-71
2022/08/16 09:33:03;;;;;;;24.55;11.70;;;;;;;;;;4966869;28;20050;-75
2022/08/16 09:35:31;;;;;;;22.23;12.38;;;;;;;;;;4961693;28;20059;-74
2022/08/16 09:37:57;;;;;;;23.35;9.75;;;;;;;;;;4966935;28;20133;-72
2022/08/16 09:40:24;;;;;;;17.35;9.45;;;;;;;;;;4961911;28;20050;-70
2022/08/16 09:42:52;;;;;;;14.25;7.75;;;;;;;;;;4968022;28;20055;-71
2022/08/16 09:45:20;;;;;;;13.73;8.27;;;;;;;;;;4962132;28;20082;-68
2022/08/16 09:47:52;;;;;;;23.05;11.52;;;;;;;;;;4967211;28;20047;-69
2022/08/16 09:50:19;;;;;;;12.10;7.20;;;;;;;;;;4965805;28;20074;-69
2022/08/16 09:52:48;;;;;;;18.50;9.65;;;;;;;;;;4986149;28;20050;-64
2022/08/16 09:55:15;;;;;;;18.95;7.35;;;;;;;;;;4985060;28;20181;-72
2022/08/16 09:57:41;;;;;;;12.02;5.90;;;;;;;;;;4969046;28;20057;-64
2022/08/16 10:00:11;;;;;;;16.05;9.77;;;;;;;;;;4961828;28;20117;-70
2022/08/16 10:02:38;;;;;;;14.90;7.07;;;;;;;;;;4967290;28;20175;-59
2022/08/16 10:05:05;;;;;;;26.50;11.20;;;;;;;;;;4962698;28;20051;-64
2022/08/16 10:07:32;;;;;;;13.45;7.50;;;;;;;;;;4960939;28;20101;-63
2022/08/16 10:10:00;;;;;;;25.65;10.63;;;;;;;;;;4967519;28;20051;-67
2022/08/16 10:15:13;;;;;;;16.50;8.43;;;;;;;;;;4968858;28;20070;-71
2022/08/16 10:17:41;;;;;;;12.60;6.70;;;;;;;;;;4963754;28;20043;-70
2022/08/16 10:20:09;;;;;;;11.63;6.90;;;;;;;;;;4971245;28;20055;-63
2022/08/16 10:22:35;;;;;;;29.33;10.23;;;;;;;;;;4963576;28;20079;-64
2022/08/16 10:25:04;;;;;;;15.82;7.07;;;;;;;;;;4970567;28;20105;-68
2022/08/16 10:27:31;;;;;;;;;;;;;;;;;;4968811;28;20170;-65
2022/08/16 10:29:58;;;;;;;14.90;6.23;;;;;;;;;;4966606;28;19930;-66
2022/08/16 10:32:26;;;;;;;16.10;7.57;;;;;;;;;;4984482;28;20299;-67
2022/08/16 10:34:53;;;;;;;14.30;7.95;;;;;;;;;;4959392;28;20047;-72
2022/08/16 10:37:20;;;;;;;12.02;6.05;;;;;;;;;;4970012;28;20047;-71
2022/08/16 10:39:46;;;;;;;10.32;5.45;;;;;;;;;;4964280;28;20042;-72
2022/08/16 10:42:16;;;;;;;15.30;7.50;;;;;;;;;;4969551;28;20082;-72
2022/08/16 10:44:43;;;;;;;11.50;6.55;;;;;;;;;;4964510;28;20070;-66
2022/08/16 10:47:10;;;;;;;13.15;6.95;;;;;;;;;;4969433;28;20051;-73
2022/08/16 10:49:37;;;;;;;17.05;7.93;;;;;;;;;;5002629;28;20138;-71
2022/08/16 10:52:04;;;;;;;13.00;6.32;;;;;;;;;;4996176;28;20059;-65
2022/08/16 10:54:31;;;;;;;21.92;8.15;;;;;;;;;;4970210;28;20055;-70
2022/08/16 10:56:58;;;;;;;18.67;10.23;;;;;;;;;;4960692;28;20055;-63
2022/08/16 10:59:26;;;;;;;22.80;8.10;;;;;;;;;;4950547;28;20067;-68
2022/08/16 11:01:53;;;;;;;9.02;5.43;;;;;;;;;;4957365;28;20046;-65
2022/08/16 11:04:20;;;;;;;13.90;5.78;;;;;;;;;;4989331;28;20054;-66
2022/08/16 11:06:46;;;;;;;11.50;5.05;;;;;;;;;;4973570;28;20108;-61
2022/08/16 11:09:13;;;;;;;11.32;5.18;;;;;;;;;;5002341;28;20054;-72
2022/08/16 11:11:43;;;;;;;9.93;5.93;;;;;;;;;;4998042;28;20113;-62
2022/08/16 11:14:11;;;;;;;12.85;4.95;;;;;;;;;;4995647;28;20094;-60
2022/08/16 11:16:39;;;;;;;12.70;5.70;;;;;;;;;;4969234;28;20141;-65
2022/08/16 11:19:06;;;;;;;8.38;4.88;;;;;;;;;;4963199;28;20058;-66
2022/08/16 11:21:36;;;;;;;9.82;4.53;;;;;;;;;;4970219;28;20050;-64
2022/08/16 11:24:03;;;;;;;9.80;5.10;;;;;;;;;;4954856;28;20138;-67
2022/08/16 11:26:30;;;;;;;13.38;6.97;;;;;;;;;;5001276;28;20051;-68
2022/08/16 11:28:57;;;;;;;13.32;7.30;;;;;;;;;;4964781;28;20062;-64
2022/08/16 11:31:24;;;;;;;15.65;6.60;;;;;;;;;;4967756;28;20058;-71
2022/08/16 11:33:52;;;;;;;12.50;7.22;;;;;;;;;;4969652;28;20065;-72
2022/08/16 11:36:19;;;;;;;10.40;5.15;;;;;;;;;;4962467;28;20121;-62
2022/08/16 11:38:46;;;;;;;8.77;4.50;;;;;;;;;;4968716;28;20051;-66
2022/08/16 11:41:14;;;;;;;13.35;6.75;;;;;;;;;;4995225;28;20046;-68
2022/08/16 11:43:41;;;;;;;13.45;6.30;;;;;;;;;;4968611;28;20055;-64
2022/08/16 11:46:09;;;;;;;9.30;5.53;;;;;;;;;;4962734;28;20071;-67
2022/08/16 11:48:37;;;;;;;6.93;3.58;;;;;;;;;;4968656;28;20102;-62
2022/08/16 11:51:05;;;;;;;10.35;5.45;;;;;;;;;;4999912;28;20053;-65
2022/08/16 11:53:32;;;;;;;;;;;;;;;;;;4965075;28;20074;-71
2022/08/16 11:55:59;;;;;;;10.93;6.45;;;;;;;;;;4968857;28;20002;-69
2022/08/16 11:58:27;;;;;;;12.52;6.78;;;;;;;;;;4962673;28;20050;-69
2022/08/16 12:00:54;;;;;;;8.20;3.92;;;;;;;;;;4997610;28;20051;-68
2022/08/16 12:03:22;;;;;;;12.73;6.82;;;;;;;;;;4964191;28;20061;-71
2022/08/16 12:05:49;;;;;;;11.93;5.05;;;;;;;;;;4968425;28;20113;-69
2022/08/16 12:08:17;;;;;;;14.85;7.57;;;;;;;;;;4962446;28;20063;-71
2022/08/16 12:10:44;;;;;;;17.80;7.50;;;;;;;;;;4968618;28;20050;-66
2022/08/16 12:13:10;;;;;;;18.33;9.18;;;;;;;;;;4966279;28;20055;-72
2022/08/16 12:15:38;;;;;;;14.63;8.43;;;;;;;;;;4964147;28;20050;-62
2022/08/16 12:18:05;;;;;;;9.82;4.65;;;;;;;;;;5000510;28;20047;-60
2022/08/16 12:20:33;;;;;;;13.18;5.50;;;;;;;;;;4994246;28;20090;-66
2022/08/16 12:23:02;;;;;;;11.65;5.18;;;;;;;;;;4968298;28;20065;-66
2022/08/16 12:25:30;;;;;;;12.02;4.60;;;;;;;;;;4994920;28;20142;-67
2022/08/16 12:27:58;;;;;;;10.20;5.85;;;;;;;;;;4967987;28;20082;-70
2022/08/16 12:30:27;;;;;;;8.30;4.43;;;;;;;;;;4995887;28;20381;-66
2022/08/16 12:32:54;;;;;;;10.38;4.72;;;;;;;;;;4954635;28;20059;-68
2022/08/16 12:35:23;;;;;;;13.63;5.60;;;;;;;;;;4949042;28;20070;-65
2022/08/16 12:37:53;;;;;;;10.30;5.45;;;;;;;;;;4961616;28;20066;-68
2022/08/16 12:40:23;;;;;;;9.57;4.63;;;;;;;;;;4967453;28;20050;-72
2022/08/16 12:42:52;;;;;;;8.07;4.47;;;;;;;;;;4962555;28;20038;-69
2022/08/16 12:45:20;;;;;;;7.63;4.00;;;;;;;;;;4968427;28;20046;-65
2022/08/16 12:50:31;;;;;;;8.95;5.00;;;;;;;;;;4968305;28;20063;-72
2022/08/16 12:52:59;;;;;;;15.48;6.60;;;;;;;;;;4962496;28;20062;-71
2022/08/16 12:55:26;;;;;;;14.63;6.40;;;;;;;;;;5001045;28;20070;-68
2022/08/16 12:57:55;;;;;;;10.37;5.57;;;;;;;;;;5000686;28;20047;-63
2022/08/16 13:00:23;;;;;;;10.93;4.25;;;;;;;;;;4962191;28;20302;-65
2022/08/16 13:02:49;;;;;;;13.45;6.10;;;;;;;;;;4965640;28;20141;-66
2022/08/16 13:05:16;;;;;;;13.88;5.13;;;;;;;;;;4959370;28;20047;-68
2022/08/16 13:07:43;;;;;;;10.15;5.03;;;;;;;;;;4967738;28;20067;-63
2022/08/16 13:10:13;;;;;;;11.15;6.75;;;;;;;;;;4994938;28;20050;-63
2022/08/16 13:12:41;;;;;;;13.77;5.82;;;;;;;;;;4999636;28;20058;-67
2022/08/16 13:15:11;;;;;;;8.82;4.80;;;;;;;;;;4994836;28;20069;-70
2022/08/16 13:17:38;;;;;;;9.23;4.15;;;;;;;;;;4968840;28;20059;-67
2022/08/16 13:20:06;;;;;;;12.30;5.88;;;;;;;;;;4967059;28;20058;-71
2022/08/16 13:22:35;;;;;;;9.77;4.00;;;;;;;;;;4996834;28;20138;-67
2022/08/16 13:25:02;;;;;;;12.70;5.95;;;;;;;;;;4967645;28;20062;-69
2022/08/16 13:27:28;;;;;;;8.82;4.55;;;;;;;;;;4994202;28;20047;-67
2022/08/16 13:29:55;;;;;;;10.52;4.82;;;;;;;;;;5000649;28;20174;-68
2022/08/16 13:32:24;;;;;;;12.32;4.82;;;;;;;;;;4961410;28;20053;-62
2022/08/16 13:34:51;;;;;;;13.50;4.43;;;;;;;;;;4968504;28;20057;-66
2022/08/16 13:37:17;;;;;;;7.35;3.80;;;;;;;;;;4962646;28;20070;-67
2022/08/16 13:39:44;;;;;;;7.80;3.67;;;;;;;;;;4985051;28;20051;-68
2022/08/16 13:42:12;;;;;;;10.45;5.03;;;;;;;;;;4969161;28;20158;-65
2022/08/16 13:44:39;;;;;;;9.18;4.35;;;;;;;;;;4960992;28;20047;-69
2022/08/16 13:47:06;;;;;;;7.13;4.65;;;;;;;;;;4967006;28;20062;-59
2022/08/16 13:49:34;;;;;;;7.53;4.25;;;;;;;;;;4961900;28;20169;-62
2022/08/16 13:52:02;;;;;;;10.57;4.30;;;;;;;;;;4989018;28;20054;-67
2022/08/16 13:54:28;;;;;;;12.60;5.70;;;;;;;;;;4977800;28;20058;-66
2022/08/16 13:56:55;;;;;;;13.05;5.75;;;;;;;;;;4970902;28;20069;-66
2022/08/16 13:59:21;;;;;;;11.70;4.28;;;;;;;;;;4968315;28;20051;-66
2022/08/16 14:01:49;;;;;;;13.23;4.47;;;;;;;;;;4983433;28;20059;-63
2022/08/16 14:04:16;;;;;;;;;;;;;;;;;;4971394;28;20063;-63
2022/08/16 14:06:44;;;;;;;8.32;3.97;;;;;;;;;;4965082;28;19926;-63
2022/08/16 14:09:11;;;;;;;11.32;3.90;;;;;;;;;;4971737;28;20043;-67
2022/08/16 14:11:41;;;;;;;;;;;;;;;;;;4998136;28;20130;-65
2022/08/16 14:14:08;;;;;;;11.82;5.20;;;;;;;;;;4971284;28;19932;-62
2022/08/16 14:16:35;;;;;;;13.43;5.90;;;;;;;;;;4997785;28;20077;-69
2022/08/16 14:19:02;;;;;;;7.70;4.20;;;;;;;;;;4969998;28;20058;-65
2022/08/16 14:21:28;;;;;;;9.48;3.90;;;;;;;;;;4970377;28;20055;-68
2022/08/16 14:23:56;;;;;;;7.47;3.47;;;;;;;;;;4998724;28;20054;-64
2022/08/16 14:26:22;;;;;;;;;;;;;;;;;;4984694;28;20058;-68
2022/08/16 14:28:51;;;;;;;10.70;5.00;;;;;;;;;;4962988;28;19957;-64
2022/08/16 14:31:20;;;;;;;5.47;3.33;;;;;;;;;;4970539;28;20055;-70
2022/08/16 14:33:46;;;;;;;8.00;4.13;;;;;;;;;;4960434;28;20047;-67
2022/08/16 14:36:14;;;;;;;6.60;3.38;;;;;;;;;;4969345;28;20059;-68
2022/08/16 14:38:40;;;;;;;10.35;4.72;;;;;;;;;;4963405;28;20054;-69
2022/08/16 14:41:09;;;;;;;11.65;4.45;;;;;;;;;;4968692;28;20087;-69
2022/08/16 14:43:35;;;;;;;6.68;3.60;;;;;;;;;;4961245;28;20054;-68
2022/08/16 14:46:03;;;;;;;7.22;3.88;;;;;;;;;;4969531;28;20047;-66